Time;durP1;ratioP1;P1;durP2;ratioP2;P2;SDS_P1;SDS_P2;PMS_P1;PMS_P2;Temp;Humidity;BMP_temperature;BMP_pressure;BME280_temperature;BME280_humidity;BME280_pressure;Samples;Min_cycle;Max_cycle;Signal;HPM_P1;HPM_P2
2023/08/28 00:03:01;;;;;;;10.30;6.85;;;;;;;19.51;64.25;97199.19;10281542;28;20049;-55
2023/08/28 00:08:00;;;;;;;11.48;6.45;;;;;;;19.27;64.02;97156.44;10279830;28;20135;-55
2023/08/28 00:12:59;;;;;;;10.95;5.78;;;;;;;19.50;64.13;97213.28;10279155;28;20121;-55
2023/08/28 00:18:00;;;;;;;10.10;5.43;;;;;;;19.41;63.70;97223.28;10281068;28;20030;-55
2023/08/28 00:22:59;;;;;;;8.52;5.95;;;;;;;19.11;64.00;97203.59;10280122;28;20524;-55
2023/08/28 00:27:58;;;;;;;14.05;6.22;;;;;;;19.08;65.11;97235.31;10281220;28;20531;-55
2023/08/28 00:32:59;;;;;;;11.75;6.00;;;;;;;19.02;65.27;97234.66;10281306;28;20567;-55
2023/08/28 00:37:59;;;;;;;13.45;6.35;;;;;;;18.88;66.30;97229.16;10280985;28;20053;-56
2023/08/28 00:42:58;;;;;;;8.88;5.97;;;;;;;18.89;65.90;97230.84;10281371;28;20068;-55
2023/08/28 00:47:57;;;;;;;12.50;6.55;;;;;;;18.95;65.61;97227.13;10282622;28;20137;-55
2023/08/28 00:52:56;;;;;;;8.50;5.90;;;;;;;18.93;65.40;97221.91;10282291;28;20131;-55
2023/08/28 00:57:55;;;;;;;10.55;6.00;;;;;;;18.94;65.10;97220.97;10282779;28;20072;-55
2023/08/28 01:02:55;;;;;;;10.75;5.97;;;;;;;18.91;65.53;97209.75;10282449;28;20060;-55
2023/08/28 01:08:12;;;;;;;10.95;6.70;;;;;;;18.90;65.85;97214.16;10281630;28;20129;-55
2023/08/28 01:13:24;;;;;;;10.57;6.55;;;;;;;18.93;66.42;97219.28;10282096;28;20116;-55
2023/08/28 01:18:24;;;;;;;14.02;6.80;;;;;;;18.89;67.32;97222.97;10282425;28;20072;-55
2023/08/28 01:23:31;;;;;;;10.00;6.55;;;;;;;18.87;67.45;97216.91;10280527;28;20679;-55
2023/08/28 01:28:31;;;;;;;10.10;6.88;;;;;;;18.92;67.13;97214.94;10279881;28;20099;-55
2023/08/28 01:33:31;;;;;;;11.52;6.18;;;;;;;18.76;67.65;97190.22;10280516;28;20125;-55
2023/08/28 01:38:36;;;;;;;10.90;6.97;;;;;;;18.57;67.87;97148.94;10280812;28;20492;-55
2023/08/28 01:43:45;;;;;;;13.52;6.60;;;;;;;18.85;68.54;97212.63;10283941;28;20057;-55
2023/08/28 01:48:45;;;;;;;;;;;;;;;18.80;68.68;97203.16;10287393;28;20069;-55
2023/08/28 01:53:45;;;;;;;12.88;7.13;;;;;;;18.81;68.58;97198.78;10287707;28;20987;-55
2023/08/28 01:58:55;;;;;;;10.57;6.60;;;;;;;18.79;68.36;97200.63;10284787;28;20069;-55
2023/08/28 02:03:54;;;;;;;11.20;6.43;;;;;;;18.75;68.55;97189.38;10303547;28;20136;-59
2023/08/28 02:08:53;;;;;;;12.57;7.15;;;;;;;18.73;69.02;97201.72;10287854;28;20054;-57
2023/08/28 02:13:52;;;;;;;11.48;6.88;;;;;;;18.60;69.65;97179.50;10287637;28;20021;-54
2023/08/28 02:18:51;;;;;;;14.68;8.18;;;;;;;18.70;69.75;97196.59;10285254;28;20030;-54
2023/08/28 02:23:50;;;;;;;11.30;7.63;;;;;;;18.65;69.90;97195.06;10283469;28;20052;-55
2023/08/28 02:28:49;;;;;;;14.43;8.23;;;;;;;18.57;70.63;97201.50;10284479;28;20042;-54
2023/08/28 02:33:48;;;;;;;13.38;8.20;;;;;;;18.50;71.00;97183.41;10283032;28;20497;-54
2023/08/28 02:38:48;;;;;;;12.05;6.38;;;;;;;18.48;70.82;97190.50;10281987;28;20744;-54
2023/08/28 02:43:46;;;;;;;17.15;7.55;;;;;;;18.42;70.90;97196.88;10281466;28;20050;-54
2023/08/28 02:48:45;;;;;;;16.85;7.68;;;;;;;18.37;70.49;97183.09;10281271;28;20137;-54
2023/08/28 02:53:45;;;;;;;16.15;7.50;;;;;;;18.35;70.22;97193.66;10283284;28;20548;-54
2023/08/28 02:58:44;;;;;;;15.75;7.90;;;;;;;18.27;70.29;97187.88;10281693;28;20555;-54
2023/08/28 03:03:43;;;;;;;13.98;8.05;;;;;;;17.88;70.30;97124.69;10279297;28;20864;-54
2023/08/28 03:08:42;;;;;;;14.15;8.00;;;;;;;18.02;70.17;97150.41;10281074;28;20057;-54
2023/08/28 03:13:41;;;;;;;11.85;8.05;;;;;;;18.12;70.40;97180.59;10281444;28;20061;-56
2023/08/28 03:18:40;;;;;;;14.18;7.72;;;;;;;17.89;71.40;97152.66;10280212;28;20056;-55
2023/08/28 03:23:39;;;;;;;14.57;7.82;;;;;;;17.95;71.62;97183.91;10282747;28;20038;-53
2023/08/28 03:28:38;;;;;;;16.75;8.07;;;;;;;17.85;71.98;97182.56;10279367;28;20476;-58
2023/08/28 03:33:37;;;;;;;21.80;8.93;;;;;;;17.59;72.88;97138.94;10282999;28;20108;-56
2023/08/28 03:38:36;;;;;;;19.45;8.45;;;;;;;17.70;72.69;97191.84;10281581;28;20797;-54
2023/08/28 03:43:35;;;;;;;16.58;8.07;;;;;;;17.54;72.91;97184.59;10279417;28;20105;-54
2023/08/28 03:48:34;;;;;;;16.02;8.45;;;;;;;17.53;73.51;97180.22;10281206;28;20753;-54
2023/08/28 03:53:33;;;;;;;15.95;7.57;;;;;;;17.51;73.99;97181.19;10280598;28;20722;-54
2023/08/28 03:58:32;;;;;;;14.48;8.35;;;;;;;17.49;74.24;97190.91;10278375;28;20766;-54
2023/08/28 04:03:31;;;;;;;13.35;8.02;;;;;;;17.52;74.04;97191.66;10280108;28;20105;-54
2023/08/28 04:08:30;;;;;;;17.02;7.93;;;;;;;17.51;74.24;97187.28;10280122;28;20040;-54
2023/08/28 04:13:29;;;;;;;;;;;;;;;17.57;74.14;97194.09;10279833;28;20022;-54
2023/08/28 04:18:28;;;;;;;16.17;8.50;;;;;;;17.53;74.05;97176.75;10279954;28;20354;-54
2023/08/28 04:23:27;;;;;;;15.50;9.48;;;;;;;17.69;74.00;97188.38;10279585;28;20064;-54
2023/08/28 04:28:25;;;;;;;;;;;;;;;17.76;74.03;97176.75;10279552;28;20152;-54
2023/08/28 04:33:24;;;;;;;18.10;9.27;;;;;;;17.86;73.87;97192.16;10276931;28;19961;-55
2023/08/28 04:38:24;;;;;;;14.45;8.40;;;;;;;17.92;73.91;97198.00;10278301;28;20061;-55
2023/08/28 04:43:23;;;;;;;16.33;8.95;;;;;;;18.09;73.26;97199.97;10275111;28;20572;-55
2023/08/28 04:48:21;;;;;;;21.55;9.73;;;;;;;18.22;72.96;97202.09;10275906;28;20042;-53
2023/08/28 04:53:20;;;;;;;19.58;9.32;;;;;;;18.24;72.44;97198.47;10276030;28;20621;-55
2023/08/28 04:58:20;;;;;;;17.77;9.13;;;;;;;18.40;72.08;97209.22;10274332;28;20041;-55
2023/08/28 05:03:19;;;;;;;21.73;9.63;;;;;;;18.38;72.15;97201.38;10276153;28;20117;-55
2023/08/28 05:08:18;;;;;;;17.95;9.63;;;;;;;18.43;71.90;97198.56;10274332;28;20113;-55
2023/08/28 05:13:17;;;;;;;19.20;10.32;;;;;;;18.47;72.27;97194.91;10274854;28;20129;-55
2023/08/28 05:18:16;;;;;;;21.00;10.90;;;;;;;18.70;71.68;97191.34;10264585;28;20109;-55
2023/08/28 05:23:15;;;;;;;18.60;11.18;;;;;;;18.88;71.06;97171.31;10274278;28;20083;-55
2023/08/28 05:28:14;;;;;;;23.35;11.50;;;;;;;19.17;70.70;97167.38;10282056;28;20121;-55
2023/08/28 05:33:13;;;;;;;16.70;9.10;;;;;;;19.49;70.71;97185.28;10282855;28;20038;-55
2023/08/28 05:38:12;;;;;;;22.17;9.50;;;;;;;19.45;69.92;97106.44;10284844;28;20120;-55
2023/08/28 05:43:11;;;;;;;24.08;8.98;;;;;;;20.08;69.72;97174.56;10285148;28;20120;-55
2023/08/28 05:48:10;;;;;;;18.42;9.38;;;;;;;20.37;68.54;97166.16;10283514;28;20046;-55
2023/08/28 05:53:09;;;;;;;27.92;9.20;;;;;;;20.65;65.64;97163.84;10285663;28;20423;-55
2023/08/28 05:58:08;;;;;;;15.18;9.05;;;;;;;20.82;64.92;97167.41;10282263;28;20117;-55
2023/08/28 06:03:07;;;;;;;16.40;8.25;;;;;;;21.08;63.10;97163.44;10282942;28;20021;-55
2023/08/28 06:08:06;;;;;;;19.17;8.27;;;;;;;21.26;62.43;97158.97;10282713;28;20057;-55
2023/08/28 06:13:05;;;;;;;16.67;9.20;;;;;;;21.45;61.65;97154.44;10278417;28;20064;-55
2023/08/28 06:18:04;;;;;;;19.35;9.50;;;;;;;21.45;61.57;97122.75;10278304;28;20080;-55
2023/08/28 06:23:03;;;;;;;20.15;8.80;;;;;;;21.86;60.96;97166.28;10280459;28;20425;-55
2023/08/28 06:28:02;;;;;;;14.20;8.18;;;;;;;22.10;58.71;97166.72;10282645;28;20481;-55
2023/08/28 06:33:02;;;;;;;11.00;7.63;;;;;;;22.06;57.09;97142.28;10280902;28;20149;-55
2023/08/28 06:38:01;;;;;;;9.57;6.20;;;;;;;22.50;55.98;97169.69;10278878;28;20076;-55
2023/08/28 06:43:00;;;;;;;11.95;7.18;;;;;;;22.66;57.50;97167.84;10282758;28;20029;-55
2023/08/28 06:48:00;;;;;;;12.30;7.10;;;;;;;22.75;56.89;97162.06;10281077;28;20103;-55
2023/08/28 06:52:59;;;;;;;11.13;6.55;;;;;;;22.73;56.33;97111.00;10282499;28;20148;-55
2023/08/28 06:57:58;;;;;;;11.05;6.60;;;;;;;23.24;54.84;97160.88;10279517;28;20093;-55
2023/08/28 07:02:58;;;;;;;9.82;6.90;;;;;;;23.28;53.97;97113.88;10281401;28;20124;-55
2023/08/28 07:07:57;;;;;;;9.80;6.15;;;;;;;23.69;52.44;97144.88;10281167;28;20073;-55
2023/08/28 07:12:55;;;;;;;9.45;6.00;;;;;;;23.91;51.79;97155.81;10277573;28;20042;-56
2023/08/28 07:17:55;;;;;;;9.60;5.85;;;;;;;23.99;51.64;97116.41;10280171;28;20112;-55
2023/08/28 07:22:53;;;;;;;9.18;6.07;;;;;;;24.41;51.51;97149.00;10281422;28;20441;-56
2023/08/28 07:27:52;;;;;;;8.65;6.13;;;;;;;24.67;50.34;97136.63;10283767;28;20761;-56
2023/08/28 07:32:51;;;;;;;10.43;6.25;;;;;;;25.02;50.17;97148.50;10281258;28;20069;-56
2023/08/28 07:37:50;;;;;;;12.20;6.07;;;;;;;25.29;48.32;97143.03;10283208;28;20436;-55
2023/08/28 07:42:49;;;;;;;13.40;5.97;;;;;;;25.53;47.79;97137.81;10267542;28;20038;-55
2023/08/28 07:47:48;;;;;;;9.95;5.88;;;;;;;25.87;47.23;97136.25;10270613;28;20108;-55
2023/08/28 07:52:47;;;;;;;9.05;5.90;;;;;;;26.03;46.87;97117.34;10270518;28;21527;-56
2023/08/28 07:57:46;;;;;;;11.10;6.43;;;;;;;26.32;45.21;97130.31;10280368;28;20054;-56
2023/08/28 08:02:48;;;;;;;9.02;6.10;;;;;;;26.49;44.49;97132.59;10277715;28;20129;-55
2023/08/28 08:08:20;;;;;;;8.80;6.10;;;;;;;26.87;44.44;97125.31;10302254;28;20046;-55
2023/08/28 08:13:19;;;;;;;9.00;6.40;;;;;;;27.19;43.29;97120.16;10264966;28;20129;-55
2023/08/28 08:18:18;;;;;;;8.55;6.13;;;;;;;27.59;41.16;97117.03;10269193;28;20138;-55
2023/08/28 08:23:17;;;;;;;7.88;5.25;;;;;;;27.82;41.24;97113.34;10269099;28;21260;-54
2023/08/28 08:28:16;;;;;;;8.73;5.97;;;;;;;28.11;41.02;97104.78;10269738;28;20228;-54
2023/08/28 08:33:17;;;;;;;11.23;6.60;;;;;;;28.32;41.10;97099.50;10271730;28;20046;-54
2023/08/28 08:38:17;;;;;;;10.88;6.35;;;;;;;28.68;40.23;97102.72;10278191;28;20445;-54
2023/08/28 08:43:16;;;;;;;9.40;6.05;;;;;;;28.87;39.44;97085.97;10275187;28;20126;-57
2023/08/28 08:54:34;;;;;;;9.07;4.75;;;;;;;29.38;37.74;97049.50;10281106;28;20129;-56
2023/08/28 08:59:33;;;;;;;14.93;5.47;;;;;;;29.57;35.45;97062.06;10281960;28;20666;-55
2023/08/28 09:04:33;;;;;;;10.18;4.18;;;;;;;29.71;34.09;97035.78;10283606;28;20525;-56
2023/08/28 09:09:33;;;;;;;8.77;4.38;;;;;;;30.10;33.93;97059.09;10284838;28;20053;-55
2023/08/28 09:14:32;;;;;;;6.38;4.13;;;;;;;30.27;33.47;97050.34;10284242;28;20109;-55
2023/08/28 09:19:31;;;;;;;8.52;4.22;;;;;;;30.49;33.18;97045.69;10288975;28;20026;-55
2023/08/28 09:24:31;;;;;;;9.00;4.50;;;;;;;30.69;33.02;97036.63;10281673;28;20469;-55
2023/08/28 09:29:30;;;;;;;5.38;3.83;;;;;;;30.94;31.48;97039.66;10285313;28;20560;-56
2023/08/28 09:34:38;;;;;;;5.65;3.30;;;;;;;31.13;31.25;97033.41;10285993;28;20101;-55
2023/08/28 09:39:40;;;;;;;6.45;4.07;;;;;;;31.23;30.68;97018.09;10284160;28;20068;-55
2023/08/28 09:44:49;;;;;;;4.68;3.03;;;;;;;31.24;27.79;96998.38;10282484;28;20057;-56
2023/08/28 09:49:49;;;;;;;5.10;3.40;;;;;;;31.71;27.08;97003.59;10263203;28;20061;-56
2023/08/28 09:55:00;;;;;;;3.40;2.97;;;;;;;31.97;26.75;96979.50;10275024;28;20125;-56
2023/08/28 09:59:59;;;;;;;6.18;3.10;;;;;;;32.21;27.42;96981.56;10267093;28;20159;-56
2023/08/28 10:05:00;;;;;;;5.72;3.20;;;;;;;32.09;26.64;96944.41;10279172;28;20102;-56
2023/08/28 10:10:03;;;;;;;6.75;3.28;;;;;;;32.48;27.33;96973.53;10280243;28;20137;-55
2023/08/28 10:15:04;;;;;;;4.53;3.20;;;;;;;32.74;26.63;96966.34;10280477;28;20120;-56
2023/08/28 10:20:04;;;;;;;5.15;3.25;;;;;;;32.94;25.59;96955.34;10274547;28;20125;-55
2023/08/28 10:25:09;;;;;;;5.78;3.17;;;;;;;33.04;24.89;96947.97;10280589;28;20136;-55
2023/08/28 10:30:12;;;;;;;7.82;3.35;;;;;;;33.09;25.43;96958.25;10279083;28;20120;-55
2023/08/28 10:35:11;;;;;;;7.47;3.05;;;;;;;33.20;24.90;96948.06;10265684;28;20545;-55
2023/08/28 10:40:11;;;;;;;3.58;2.58;;;;;;;33.18;24.00;96925.88;10280380;28;20124;-55
2023/08/28 10:45:10;;;;;;;6.10;2.55;;;;;;;33.42;23.53;96935.03;10280791;28;20061;-55
2023/08/28 10:50:09;;;;;;;4.65;2.60;;;;;;;33.66;22.54;96929.69;10286321;28;20092;-55
2023/08/28 10:55:09;;;;;;;4.65;2.63;;;;;;;33.95;22.79;96933.72;10319830;28;20034;-55
2023/08/28 11:00:17;;;;;;;5.07;2.55;;;;;;;34.02;23.09;96923.97;10317584;28;20830;-55
2023/08/28 11:05:17;;;;;;;5.07;2.65;;;;;;;33.76;22.31;96858.72;10319890;28;20124;-55
2023/08/28 11:10:18;;;;;;;4.43;2.40;;;;;;;34.18;22.11;96903.47;10307377;28;20116;-55
2023/08/28 11:15:34;;;;;;;6.20;2.55;;;;;;;34.51;22.68;96896.97;10320067;28;20120;-54
2023/08/28 11:20:35;;;;;;;5.78;2.60;;;;;;;34.67;22.12;96893.41;10322640;28;20108;-57
2023/08/28 11:25:36;;;;;;;4.35;2.60;;;;;;;34.73;22.25;96889.19;10336719;28;20064;-57
2023/08/28 11:30:36;;;;;;;5.75;2.40;;;;;;;34.64;22.46;96857.91;10324468;28;20463;-55
2023/08/28 11:35:35;;;;;;;3.47;2.20;;;;;;;34.86;21.45;96867.91;10328031;28;20164;-56
2023/08/28 11:40:34;;;;;;;2.95;2.30;;;;;;;34.70;22.02;96863.41;10321213;28;20997;-56
2023/08/28 11:45:34;;;;;;;4.07;2.70;;;;;;;34.91;21.28;96859.28;10322707;28;20923;-56
2023/08/28 11:50:34;;;;;;;8.55;2.70;;;;;;;34.85;21.12;96815.00;10316776;28;20085;-56
2023/08/28 11:55:35;;;;;;;3.53;2.85;;;;;;;34.99;21.48;96847.59;10294393;28;20544;-56
2023/08/28 12:00:34;;;;;;;3.58;2.42;;;;;;;34.98;20.86;96843.25;10309766;28;20572;-56
2023/08/28 12:05:35;;;;;;;5.00;2.78;;;;;;;34.70;21.13;96782.56;10296633;28;20845;-56
2023/08/28 12:10:34;;;;;;;5.72;2.40;;;;;;;35.06;20.72;96814.38;10315058;28;20059;-56
2023/08/28 12:15:34;;;;;;;3.42;2.70;;;;;;;35.33;21.46;96813.00;10319822;28;20105;-56
2023/08/28 12:20:33;;;;;;;6.18;2.78;;;;;;;35.38;21.23;96796.28;10303215;28;20575;-56
2023/08/28 12:25:34;;;;;;;5.72;2.85;;;;;;;35.46;21.17;96800.78;10304762;28;20056;-56
2023/08/28 12:30:34;;;;;;;3.58;2.35;;;;;;;35.56;20.99;96795.97;10292234;28;20072;-56
2023/08/28 12:35:41;;;;;;;4.93;2.47;;;;;;;35.80;21.19;96786.00;10299726;28;20557;-56
2023/08/28 12:40:42;;;;;;;3.33;2.28;;;;;;;35.85;20.17;96775.47;10311241;28;20656;-57
2023/08/28 12:45:42;;;;;;;7.20;2.67;;;;;;;35.53;19.97;96763.97;10303934;28;20063;-57
2023/08/28 12:50:41;;;;;;;3.60;2.60;;;;;;;35.75;20.90;96744.19;10307439;28;20987;-57
2023/08/28 12:55:39;;;;;;;2.55;2.17;;;;;;;35.83;20.07;96750.53;10304614;28;20037;-56
2023/08/28 13:00:38;;;;;;;7.72;2.85;;;;;;;35.82;19.93;96748.84;10336528;28;20032;-57
2023/08/28 13:05:41;;;;;;;6.00;2.60;;;;;;;35.93;20.56;96738.44;10338665;28;20055;-57
2023/08/28 13:10:40;;;;;;;9.02;3.05;;;;;;;36.11;20.11;96740.78;10355956;28;20152;-56
2023/08/28 13:15:42;;;;;;;27.23;4.00;;;;;;;36.38;19.46;96750.06;10292494;28;20124;-57
2023/08/28 13:20:41;;;;;;;7.40;2.50;;;;;;;36.40;19.33;96733.66;10335923;28;20136;-57
2023/08/28 13:25:41;;;;;;;6.72;2.38;;;;;;;36.52;19.37;96723.19;10334803;28;20029;-57
2023/08/28 13:30:40;;;;;;;7.97;2.33;;;;;;;36.74;19.13;96734.91;10329192;28;20055;-57
2023/08/28 13:35:39;;;;;;;5.05;2.17;;;;;;;36.85;18.84;96730.88;10332797;28;20116;-57
2023/08/28 13:40:38;;;;;;;6.65;2.38;;;;;;;36.05;18.98;96570.53;10333515;28;20137;-57
2023/08/28 13:45:37;;;;;;;7.38;2.45;;;;;;;36.93;18.78;96704.53;10333211;28;20028;-57
2023/08/28 13:50:37;;;;;;;5.00;2.47;;;;;;;37.18;18.84;96717.69;10331474;28;20038;-57
2023/08/28 13:55:39;;;;;;;4.05;2.40;;;;;;;37.27;18.67;96705.69;10285964;28;20100;-57
2023/08/28 14:00:38;;;;;;;11.70;2.90;;;;;;;37.25;19.18;96696.09;10284661;28;20583;-57
2023/08/28 14:05:37;;;;;;;8.45;2.72;;;;;;;37.34;19.11;96709.28;10282216;28;20057;-56
2023/08/28 14:10:36;;;;;;;14.60;2.90;;;;;;;37.08;19.32;96706.38;10282313;28;20025;-57
2023/08/28 14:15:35;;;;;;;9.27;3.00;;;;;;;36.82;19.80;96707.75;10284746;28;20026;-57
2023/08/28 14:20:34;;;;;;;6.47;2.30;;;;;;;36.92;19.76;96696.59;10278334;28;20488;-56
2023/08/28 14:25:33;;;;;;;5.18;2.60;;;;;;;36.69;20.59;96665.19;10276986;28;20432;-57
2023/08/28 14:30:32;;;;;;;5.82;2.83;;;;;;;36.74;20.36;96694.34;10279712;28;20029;-56
2023/08/28 14:35:31;;;;;;;9.15;3.00;;;;;;;36.65;20.57;96690.09;10280350;28;20045;-57
2023/08/28 14:40:31;;;;;;;19.70;11.40;;;;;;;36.66;20.86;96697.19;10279899;28;20621;-57
2023/08/28 14:45:31;;;;;;;6.45;3.20;;;;;;;36.51;20.23;96692.66;10278788;28;20108;-56
2023/08/28 14:50:32;;;;;;;9.02;3.15;;;;;;;36.48;20.69;96687.59;10262500;28;20069;-57
2023/08/28 14:55:30;;;;;;;6.47;3.08;;;;;;;36.26;20.61;96692.16;10284717;28;20124;-57
2023/08/28 15:00:32;;;;;;;8.77;2.80;;;;;;;35.87;21.04;96644.69;10279318;28;20049;-57
2023/08/28 15:05:32;;;;;;;5.35;2.55;;;;;;;36.00;20.57;96676.44;10275438;28;20109;-56
2023/08/28 15:10:30;;;;;;;13.73;3.10;;;;;;;35.82;20.91;96648.97;10282486;28;20120;-57
2023/08/28 15:15:29;;;;;;;10.52;2.80;;;;;;;35.48;21.44;96639.53;10280810;28;20141;-56
2023/08/28 15:20:29;;;;;;;6.32;2.70;;;;;;;35.44;21.29;96671.47;10276997;28;20048;-56
2023/08/28 15:25:28;;;;;;;8.77;3.10;;;;;;;35.42;20.79;96673.50;10279934;28;20045;-57
2023/08/28 15:30:29;;;;;;;16.55;3.90;;;;;;;35.30;21.17;96664.19;10280284;28;20096;-57
2023/08/28 15:35:29;;;;;;;6.38;2.90;;;;;;;35.17;20.86;96672.91;10279838;28;20116;-56
2023/08/28 15:40:28;;;;;;;6.63;2.60;;;;;;;34.97;21.26;96664.47;10279580;28;20062;-57
2023/08/28 15:45:27;;;;;;;11.05;3.25;;;;;;;34.59;21.12;96642.00;10279886;28;20049;-58
2023/08/28 15:50:26;;;;;;;9.35;2.58;;;;;;;34.62;21.12;96676.72;10278403;28;20121;-57
2023/08/28 15:55:25;;;;;;;17.10;3.65;;;;;;;34.30;20.99;96667.78;10274276;28;20037;-54
2023/08/28 16:00:24;;;;;;;7.53;2.38;;;;;;;33.97;21.01;96664.41;10274237;28;20036;-55
2023/08/28 16:05:23;;;;;;;6.72;2.83;;;;;;;33.71;20.87;96675.44;10276556;28;20025;-55
2023/08/28 16:10:22;;;;;;;10.63;3.40;;;;;;;33.59;21.62;96672.25;10273286;28;20029;-56
2023/08/28 16:15:21;;;;;;;14.23;3.35;;;;;;;33.28;21.58;96678.38;10276958;28;20061;-55
2023/08/28 16:20:20;;;;;;;4.50;2.45;;;;;;;33.01;21.91;96668.78;10275258;28;20096;-55
2023/08/28 16:25:19;;;;;;;12.68;3.00;;;;;;;32.85;21.40;96675.00;10279401;28;20105;-55
2023/08/28 16:30:18;;;;;;;6.72;2.60;;;;;;;32.62;22.01;96682.88;10280185;28;20036;-56
2023/08/28 16:35:18;;;;;;;5.45;3.30;;;;;;;32.07;22.59;96643.13;10274574;28;20822;-56
2023/08/28 16:40:17;;;;;;;10.18;2.83;;;;;;;32.11;22.82;96685.59;10277117;28;20133;-56
2023/08/28 16:45:16;;;;;;;12.60;3.47;;;;;;;31.73;23.47;96678.84;10277076;28;20045;-55
2023/08/28 16:50:16;;;;;;;7.13;3.20;;;;;;;31.59;24.21;96689.19;10283994;28;20087;-55
2023/08/28 16:55:15;;;;;;;7.70;3.05;;;;;;;31.43;24.24;96699.78;10321597;28;20120;-57
2023/08/28 17:00:14;;;;;;;9.90;3.65;;;;;;;31.23;25.27;96698.31;10318057;28;20106;-59
2023/08/28 17:05:13;;;;;;;5.65;3.15;;;;;;;31.02;25.34;96702.16;10314801;28;20591;-58
2023/08/28 17:10:12;;;;;;;7.07;3.53;;;;;;;30.81;25.50;96706.97;10316385;28;20029;-56
2023/08/28 17:15:11;;;;;;;8.65;3.53;;;;;;;30.55;25.98;96705.06;10324457;28;20025;-56
2023/08/28 17:20:10;;;;;;;5.80;3.67;;;;;;;30.36;26.15;96706.00;10321681;28;20947;-56
2023/08/28 17:25:09;;;;;;;6.07;3.60;;;;;;;30.24;26.27;96709.91;10324462;28;20390;-56
2023/08/28 17:30:09;;;;;;;6.20;3.70;;;;;;;29.97;26.74;96697.38;10323273;28;20076;-55
2023/08/28 17:35:08;;;;;;;8.85;3.78;;;;;;;29.90;26.97;96714.00;10329815;28;20132;-55
2023/08/28 17:40:08;;;;;;;8.95;3.85;;;;;;;29.78;27.39;96720.50;10324539;28;20132;-55
2023/08/28 17:45:07;;;;;;;7.25;3.20;;;;;;;29.64;27.12;96726.31;10322857;28;20057;-56
2023/08/28 17:50:07;;;;;;;7.05;4.43;;;;;;;29.40;28.35;96718.81;10323638;28;20137;-57
2023/08/28 17:55:07;;;;;;;6.82;3.80;;;;;;;29.35;28.49;96751.31;10318919;28;20144;-56
2023/08/28 18:00:06;;;;;;;6.18;3.58;;;;;;;29.27;28.87;96753.84;10321643;28;20061;-56
2023/08/28 18:05:05;;;;;;;6.20;3.72;;;;;;;29.12;29.34;96756.09;10320710;28;20061;-55
2023/08/28 18:10:05;;;;;;;6.20;3.83;;;;;;;28.99;29.30;96760.84;10321086;28;20683;-55
2023/08/28 18:15:04;;;;;;;5.65;3.90;;;;;;;28.84;29.87;96773.78;10310689;28;20109;-55
2023/08/28 18:20:04;;;;;;;6.82;4.40;;;;;;;28.57;30.38;96740.59;10321095;28;20057;-56
2023/08/28 18:25:04;;;;;;;7.00;4.32;;;;;;;28.57;30.87;96759.28;10322298;28;20121;-56
2023/08/28 18:30:04;;;;;;;6.50;3.95;;;;;;;28.46;30.81;96760.22;10311511;28;20542;-55
2023/08/28 18:35:05;;;;;;;5.35;3.67;;;;;;;28.29;31.04;96744.91;10317592;28;20061;-55
2023/08/28 18:40:05;;;;;;;6.15;3.42;;;;;;;28.07;31.01;96735.28;10299134;28;20068;-55
2023/08/28 18:45:04;;;;;;;6.03;4.15;;;;;;;28.27;31.28;96762.00;10316515;28;20103;-56
2023/08/28 18:50:04;;;;;;;4.90;3.50;;;;;;;28.17;31.10;96751.28;10313058;28;20073;-55
2023/08/28 18:55:03;;;;;;;8.73;3.78;;;;;;;28.16;31.45;96752.28;10282720;28;20057;-55
2023/08/28 19:00:05;;;;;;;7.10;3.83;;;;;;;28.04;31.54;96765.69;10280978;28;20057;-57
2023/08/28 19:05:06;;;;;;;7.43;4.15;;;;;;;27.97;31.51;96753.88;10283181;28;20053;-56
2023/08/28 19:10:07;;;;;;;5.50;3.75;;;;;;;27.91;31.87;96758.91;10281476;28;20218;-55
2023/08/28 19:15:10;;;;;;;8.45;4.13;;;;;;;27.69;31.96;96730.59;10280171;28;20061;-55
2023/08/28 19:20:09;;;;;;;7.13;4.43;;;;;;;27.63;31.69;96718.63;10282002;28;20061;-56
2023/08/28 19:25:09;;;;;;;7.47;4.07;;;;;;;27.83;31.50;96757.75;10278229;28;20529;-56
2023/08/28 19:30:09;;;;;;;5.95;3.90;;;;;;;27.80;31.95;96768.69;10259152;28;20125;-56
2023/08/28 19:35:14;;;;;;;6.53;4.07;;;;;;;27.70;32.14;96753.59;10277074;28;20541;-56
2023/08/28 19:40:13;;;;;;;6.57;3.97;;;;;;;27.66;32.09;96763.72;10277110;28;20076;-55
2023/08/28 19:45:12;;;;;;;6.75;4.00;;;;;;;27.62;31.96;96764.94;10278413;28;20060;-56
2023/08/28 19:50:11;;;;;;;8.20;3.90;;;;;;;27.39;32.27;96726.91;10280083;28;20466;-56
2023/08/28 19:55:13;;;;;;;9.18;4.35;;;;;;;27.55;32.22;96766.44;10313719;28;20543;-54
2023/08/28 20:00:13;;;;;;;5.32;3.72;;;;;;;27.29;32.92;96726.84;10315641;28;20151;-55
2023/08/28 20:05:12;;;;;;;5.93;3.80;;;;;;;27.30;33.03;96755.16;10314453;28;20103;-55
2023/08/28 20:10:11;;;;;;;6.55;4.55;;;;;;;27.20;33.25;96762.25;10316956;28;20305;-57
2023/08/28 20:15:10;;;;;;;5.80;4.10;;;;;;;27.02;33.59;96750.47;10315636;28;20029;-54
2023/08/28 20:20:11;;;;;;;6.93;3.88;;;;;;;26.88;34.30;96754.31;10313858;28;21460;-55
2023/08/28 20:25:10;;;;;;;7.28;3.72;;;;;;;26.66;34.77;96758.72;10320387;28;20462;-55
2023/08/28 20:30:09;;;;;;;5.80;3.70;;;;;;;26.58;34.73;96758.47;10317257;28;20846;-54
2023/08/28 20:35:09;;;;;;;8.63;4.00;;;;;;;26.41;35.58;96745.72;10323246;28;20116;-54
2023/08/28 20:40:14;;;;;;;7.80;4.45;;;;;;;26.29;35.48;96739.56;10319524;28;20068;-54
2023/08/28 20:45:13;;;;;;;8.45;4.22;;;;;;;26.20;35.70;96741.16;10317795;28;20105;-54
2023/08/28 20:50:12;;;;;;;7.13;4.15;;;;;;;25.98;35.77;96711.94;10324544;28;20520;-54
2023/08/28 20:55:11;;;;;;;8.52;4.20;;;;;;;25.78;36.71;96701.06;10331281;28;20554;-56
2023/08/28 21:00:10;;;;;;;9.95;4.72;;;;;;;25.91;36.98;96743.47;10318891;28;20554;-55
2023/08/28 21:05:10;;;;;;;6.78;4.35;;;;;;;25.70;37.40;96741.53;10316431;28;20076;-55
2023/08/28 21:10:09;;;;;;;7.63;4.57;;;;;;;25.58;37.83;96741.66;10328503;28;20064;-55
2023/08/28 21:15:08;;;;;;;5.95;4.53;;;;;;;25.36;38.05;96745.91;10333370;28;20055;-55
2023/08/28 21:20:08;;;;;;;7.20;4.60;;;;;;;25.19;38.58;96749.88;10335215;28;20064;-55
2023/08/28 21:25:07;;;;;;;5.38;4.15;;;;;;;24.12;38.81;96596.06;10329688;28;20112;-55
2023/08/28 21:30:07;;;;;;;8.27;4.35;;;;;;;24.90;39.24;96765.34;10331192;28;20120;-55
2023/08/28 21:35:06;;;;;;;6.88;4.20;;;;;;;24.70;39.89;96769.44;10337444;28;20129;-55
2023/08/28 21:40:06;;;;;;;6.30;4.40;;;;;;;24.59;39.75;96764.94;10328746;28;20069;-55
2023/08/28 21:45:07;;;;;;;7.68;4.30;;;;;;;24.48;39.95;96759.59;10328868;28;20057;-55
2023/08/28 21:50:06;;;;;;;12.00;4.78;;;;;;;24.37;40.40;96740.94;10344514;28;20121;-55
2023/08/28 21:55:05;;;;;;;6.88;4.55;;;;;;;24.32;40.62;96757.19;10327067;28;20504;-55
2023/08/28 22:00:05;;;;;;;6.35;3.90;;;;;;;24.24;40.90;96755.09;10323197;28;20116;-55
2023/08/28 22:05:05;;;;;;;7.68;4.30;;;;;;;23.88;41.42;96710.84;10320079;28;20548;-55
2023/08/28 22:10:05;;;;;;;7.15;4.82;;;;;;;24.10;41.53;96751.69;10321386;28;20057;-55
2023/08/28 22:15:04;;;;;;;11.35;4.95;;;;;;;23.96;41.89;96756.19;10323876;28;20129;-55
2023/08/28 22:20:04;;;;;;;8.25;4.60;;;;;;;23.83;42.10;96750.06;10316467;28;20141;-55
2023/08/28 22:25:03;;;;;;;7.03;4.30;;;;;;;23.77;42.26;96739.88;10316379;28;20108;-55
2023/08/28 22:30:02;;;;;;;7.75;4.38;;;;;;;23.86;42.18;96744.53;10319835;28;20045;-56
2023/08/28 22:35:01;;;;;;;8.68;4.53;;;;;;;24.04;41.63;96732.63;10304923;28;20097;-55
2023/08/28 22:40:00;;;;;;;8.75;4.20;;;;;;;24.00;41.82;96725.84;10314970;28;20060;-55
2023/08/28 22:44:59;;;;;;;6.40;4.35;;;;;;;24.06;41.86;96719.28;10312509;28;20045;-55
2023/08/28 22:49:58;;;;;;;8.75;4.80;;;;;;;24.10;42.28;96709.28;10307512;28;20044;-56
2023/08/28 22:54:57;;;;;;;6.78;4.75;;;;;;;24.02;42.18;96694.78;10288572;28;20033;-55
2023/08/28 22:59:56;;;;;;;8.10;4.07;;;;;;;24.11;42.32;96700.41;10291804;28;20066;-55
2023/08/28 23:04:55;;;;;;;8.23;4.55;;;;;;;24.07;42.58;96702.41;10289807;28;20032;-55
2023/08/28 23:09:55;;;;;;;10.68;4.78;;;;;;;23.99;42.80;96692.38;10287472;28;20769;-55
2023/08/28 23:14:57;;;;;;;7.43;4.10;;;;;;;23.88;43.22;96692.28;10291015;28;20101;-55